Terminal Aerodrome Forecast
Issued by NWS Upton, NY

Home | Current Version | Previous Version | Text Only | Print | Product List | Glossary On
Versions: 1 2 3 4 5 6 7 8 9 10 11 12 13 14 15 16 17 18 19 20 21 22 23 24 25 26 27 28 29 30 31 32 33 34
000
FTUS41 KOKX 310156 CCB
TAFJFK
TAF COR
KJFK 310156Z 3102/0106 19010KT P6SM SCT003 SCT025 BKN150
     FM310400 20007KT 6SM BR SCT003 BKN015
      TEMPO 3104/3107 4SM BR BKN003
     FM310700 23005KT 2SM BR SCT007 BKN015 BKN090
     FM311100 33005KT P6SM FEW015 SCT120 SCT250
     FM311600 24005KT P6SM FEW050 SCT250
     FM311800 19011KT P6SM FEW050 SCT250
     FM010300 VRB05KT P6SM FEW060 SCT250=

USA.gov is the U.S. government's official web portal to all federal, state and local government web resources and services.